createdAt,value
2023-01-28T00:02:17.073Z,81.24
2023-01-28T00:05:19.157Z,81.23
2023-01-28T00:08:20.819Z,81.23
2023-01-28T00:11:22.911Z,81.14
2023-01-28T00:14:24.744Z,81.14
2023-01-28T00:17:26.507Z,80.83
2023-01-28T00:20:28.428Z,81.00
2023-01-28T00:23:31.310Z,81.27
2023-01-28T00:26:33.002Z,81.10
2023-01-28T00:29:34.628Z,81.24
2023-01-28T00:32:36.278Z,80.98
2023-01-28T00:35:37.884Z,81.43
2023-01-28T00:38:39.996Z,80.89
2023-01-28T00:41:41.630Z,81.20
2023-01-28T00:44:43.546Z,81.12
2023-01-28T00:47:45.150Z,81.16
2023-01-28T00:50:46.791Z,81.18
2023-01-28T00:53:48.746Z,81.28
2023-01-28T00:56:50.264Z,81.03
2023-01-28T00:59:51.951Z,81.18
2023-01-28T01:02:53.659Z,81.19
2023-01-28T01:05:57.388Z,80.99
2023-01-28T01:08:59.163Z,81.16
2023-01-28T01:12:00.856Z,81.07
2023-01-28T01:15:02.601Z,81.09
2023-01-28T01:18:04.203Z,81.00
2023-01-28T01:21:11.169Z,81.35
2023-01-28T01:24:12.826Z,81.17
2023-01-28T01:27:14.463Z,81.36
2023-01-28T01:30:16.758Z,81.17
2023-01-28T01:33:18.426Z,81.35
2023-01-28T01:36:20.133Z,81.35
2023-01-28T01:39:21.790Z,80.99
2023-01-28T01:42:24.669Z,81.32
2023-01-28T01:45:26.786Z,81.14
2023-01-28T01:48:33.939Z,81.13
2023-01-28T01:51:36.276Z,81.10
2023-01-28T01:54:38.891Z,81.21
2023-01-28T01:57:41.519Z,81.17
2023-01-28T02:00:43.255Z,81.50
2023-01-28T02:03:55.701Z,81.20
2023-01-28T02:06:59.023Z,81.40
2023-01-28T02:10:00.664Z,81.37
2023-01-28T02:13:02.482Z,81.47
2023-01-28T02:16:04.114Z,81.05
2023-01-28T02:19:07.486Z,81.21
2023-01-28T02:22:54.169Z,81.20
2023-01-28T02:26:17.708Z,81.13
2023-01-28T02:29:38.639Z,81.50
2023-01-28T02:32:46.589Z,81.26
2023-01-28T02:35:55.034Z,81.60
2023-01-28T02:38:59.702Z,81.37
2023-01-28T02:42:05.906Z,81.38
2023-01-28T02:45:17.129Z,81.41
2023-01-28T02:48:22.237Z,81.35
2023-01-28T02:51:36.231Z,81.39
2023-01-28T02:54:46.184Z,81.42
2023-01-28T02:57:56.601Z,81.47
2023-01-28T03:01:05.013Z,81.52
2023-01-28T03:04:20.854Z,81.35
2023-01-28T03:07:24.220Z,81.39
2023-01-28T03:10:26.865Z,81.50
2023-01-28T03:13:28.555Z,81.33
2023-01-28T03:16:30.197Z,81.50
2023-01-28T03:19:31.904Z,81.16
2023-01-28T03:22:36.057Z,81.35
2023-01-28T03:25:40.487Z,81.45
2023-01-28T03:28:43.686Z,81.33
2023-01-28T03:31:45.267Z,81.33
2023-01-28T03:34:47.571Z,81.42
2023-01-28T03:37:49.294Z,81.41
2023-01-28T03:40:56.660Z,81.14
2023-01-28T03:43:58.322Z,81.26
2023-01-28T03:46:59.943Z,81.24
2023-01-28T03:50:01.636Z,81.38
2023-01-28T03:53:03.257Z,81.53
2023-01-28T03:56:05.067Z,81.36
2023-01-28T03:59:07.351Z,81.28
2023-01-28T04:02:10.568Z,81.68
2023-01-28T04:05:12.690Z,81.59
2023-01-28T04:08:14.626Z,81.34
2023-01-28T04:11:16.284Z,80.84
2023-01-28T04:14:18.802Z,80.29
2023-01-28T04:17:20.539Z,80.42
2023-01-28T04:20:22.262Z,80.43
2023-01-28T04:23:23.941Z,80.82
2023-01-28T04:26:25.663Z,80.79
2023-01-28T04:29:27.273Z,80.91
2023-01-28T04:32:28.894Z,80.75
2023-01-28T04:35:30.532Z,80.74
2023-01-28T04:38:32.205Z,81.18
2023-01-28T04:41:34.106Z,81.24
2023-01-28T04:44:35.526Z,81.52
2023-01-28T04:47:37.133Z,81.38
2023-01-28T04:50:38.655Z,81.21
2023-01-28T04:53:40.339Z,81.39
2023-01-28T04:56:42.072Z,81.38
2023-01-28T04:59:43.653Z,81.52
2023-01-28T05:02:45.334Z,81.55
2023-01-28T05:05:47.070Z,81.37
2023-01-28T05:08:48.672Z,81.16
2023-01-28T05:11:50.450Z,81.41
2023-01-28T05:14:51.994Z,80.93
2023-01-28T05:17:55.020Z,81.12
2023-01-28T05:20:56.679Z,80.83
2023-01-28T05:23:58.495Z,81.19
2023-01-28T05:27:00.098Z,81.12
2023-01-28T05:30:01.866Z,81.79
2023-01-28T05:33:03.374Z,81.85
2023-01-28T05:36:05.447Z,81.79
2023-01-28T05:39:07.585Z,81.74
2023-01-28T05:42:09.419Z,81.61
2023-01-28T05:45:10.942Z,81.57
2023-01-28T05:48:12.591Z,81.65
2023-01-28T05:51:14.128Z,81.46
2023-01-28T05:54:15.645Z,81.56
2023-01-28T05:57:17.264Z,81.48
2023-01-28T06:00:19.188Z,81.24
2023-01-28T06:03:20.806Z,81.61
2023-01-28T06:06:22.364Z,81.11
2023-01-28T06:09:23.997Z,81.44
2023-01-28T06:12:25.571Z,81.44
2023-01-28T06:15:27.281Z,81.36
2023-01-28T06:18:28.928Z,81.22
2023-01-28T06:21:30.587Z,81.13
2023-01-28T06:24:32.094Z,81.24
2023-01-28T06:27:33.664Z,81.36
2023-01-28T06:30:35.272Z,81.31
2023-01-28T06:33:36.853Z,80.99
2023-01-28T06:36:38.671Z,81.06
2023-01-28T06:39:40.140Z,81.13
2023-01-28T06:42:41.794Z,81.01
2023-01-28T06:45:43.408Z,80.83
2023-01-28T06:48:45.038Z,80.64
2023-01-28T06:51:46.671Z,80.46
2023-01-28T06:54:48.355Z,80.45
2023-01-28T06:57:49.924Z,80.67
2023-01-28T07:00:53.307Z,80.69
2023-01-28T07:03:54.865Z,80.88
2023-01-28T07:06:56.517Z,81.18
2023-01-28T07:09:58.276Z,81.17
2023-01-28T07:12:59.884Z,80.98
2023-01-28T07:16:01.761Z,81.24
2023-01-28T07:19:03.651Z,81.27
2023-01-28T07:22:05.484Z,81.60
2023-01-28T07:25:08.325Z,81.66
2023-01-28T07:28:09.916Z,81.66
2023-01-28T07:31:11.574Z,81.37
2023-01-28T07:34:13.485Z,81.48
2023-01-28T07:37:15.174Z,81.51
2023-01-28T07:40:17.104Z,80.97
2023-01-28T07:43:18.842Z,80.98
2023-01-28T07:46:20.481Z,81.14
2023-01-28T07:49:22.060Z,80.75
2023-01-28T07:52:23.796Z,80.69
2023-01-28T07:55:25.795Z,80.80
2023-01-28T07:58:27.701Z,80.54
2023-01-28T08:01:29.180Z,80.79
2023-01-28T08:04:30.938Z,80.32
2023-01-28T08:07:32.945Z,80.60
2023-01-28T08:10:34.723Z,80.53
2023-01-28T08:13:36.415Z,80.36
2023-01-28T08:16:38.142Z,80.35
2023-01-28T08:19:39.724Z,80.32
2023-01-28T08:22:41.428Z,80.33
2023-01-28T08:25:43.560Z,80.40
2023-01-28T08:28:45.241Z,80.31
2023-01-28T08:31:47.363Z,80.12
2023-01-28T08:34:48.922Z,80.35
2023-01-28T08:37:50.675Z,80.32
2023-01-28T08:40:52.247Z,80.47
2023-01-28T08:43:53.970Z,80.17
2023-01-28T08:46:55.642Z,80.13
2023-01-28T08:49:57.265Z,80.45
2023-01-28T08:53:01.172Z,80.17
2023-01-28T08:56:02.906Z,79.83
2023-01-28T08:59:04.512Z,80.08
2023-01-28T09:02:06.520Z,80.00
2023-01-28T09:05:08.701Z,80.06
2023-01-28T09:08:12.746Z,79.91
2023-01-28T09:11:14.343Z,80.23
2023-01-28T09:14:15.940Z,79.82
2023-01-28T09:17:17.605Z,79.92
2023-01-28T09:20:19.715Z,80.01
2023-01-28T09:23:21.459Z,79.85
2023-01-28T09:26:22.984Z,79.66
2023-01-28T09:29:24.842Z,79.71
2023-01-28T09:32:26.378Z,79.76
2023-01-28T09:35:28.858Z,79.85
2023-01-28T09:38:31.368Z,80.07
2023-01-28T09:41:45.048Z,79.71
2023-01-28T09:45:09.562Z,79.85
2023-01-28T09:48:16.111Z,79.76
2023-01-28T09:51:41.942Z,79.87
2023-01-28T09:54:47.343Z,79.42
2023-01-28T09:57:52.675Z,79.45
2023-01-28T10:01:03.411Z,79.40
2023-01-28T10:04:38.613Z,79.32
2023-01-28T10:07:54.704Z,79.21
2023-01-28T10:11:04.944Z,79.14
2023-01-28T10:14:26.392Z,79.13
2023-01-28T10:17:30.908Z,79.19
2023-01-28T10:20:37.734Z,78.97
2023-01-28T10:23:46.163Z,79.06
2023-01-28T10:26:48.043Z,79.00
2023-01-28T10:29:50.008Z,79.19
2023-01-28T10:33:10.602Z,78.87
2023-01-28T10:36:12.266Z,79.10
2023-01-28T10:39:15.652Z,78.84
2023-01-28T10:42:38.313Z,79.04
2023-01-28T10:46:18.319Z,79.07
2023-01-28T10:49:24.065Z,79.25
2023-01-28T10:52:25.885Z,79.02
2023-01-28T10:55:31.776Z,79.00
2023-01-28T10:58:37.129Z,79.23
2023-01-28T11:01:45.130Z,79.03
2023-01-28T11:04:47.035Z,79.21
2023-01-28T11:07:49.236Z,79.11
2023-01-28T11:10:51.545Z,79.00
2023-01-28T11:13:54.218Z,79.27
2023-01-28T11:16:57.922Z,79.45
2023-01-28T11:20:08.728Z,79.27
2023-01-28T11:23:23.305Z,79.28
2023-01-28T11:26:27.484Z,79.25
2023-01-28T11:29:32.472Z,79.19
2023-01-28T11:32:34.160Z,79.56
2023-01-28T11:35:35.635Z,79.33
2023-01-28T11:38:54.440Z,79.31
2023-01-28T11:42:16.068Z,79.25
2023-01-28T11:45:19.964Z,79.06
2023-01-28T11:48:45.115Z,79.26
2023-01-28T11:51:58.860Z,79.25
2023-01-28T11:55:19.081Z,79.24
2023-01-28T11:59:03.628Z,78.75
2023-01-28T12:02:20.521Z,79.14
2023-01-28T12:05:30.644Z,79.13
2023-01-28T12:08:56.888Z,79.56
2023-01-28T12:12:22.990Z,79.05
2023-01-28T12:15:47.702Z,79.06
2023-01-28T12:18:57.377Z,78.90
2023-01-28T12:22:11.584Z,78.75
2023-01-28T12:25:35.297Z,78.82
2023-01-28T12:28:52.370Z,78.73
2023-01-28T12:32:20.111Z,78.87
2023-01-28T12:35:26.611Z,79.02
2023-01-28T12:38:35.481Z,78.95
2023-01-28T12:41:43.977Z,79.13
2023-01-28T12:45:02.126Z,78.93
2023-01-28T12:48:14.672Z,78.87
2023-01-28T12:51:28.095Z,79.13
2023-01-28T12:54:40.786Z,78.98
2023-01-28T12:57:43.482Z,79.15
2023-01-28T13:00:55.741Z,78.80
2023-01-28T13:04:06.741Z,78.70
2023-01-28T13:07:20.836Z,79.08
2023-01-28T13:10:27.987Z,78.95
2023-01-28T13:13:31.685Z,78.76
2023-01-28T13:16:37.934Z,78.86
2023-01-28T13:19:41.349Z,78.84
2023-01-28T13:22:44.979Z,78.73
2023-01-28T13:25:54.539Z,78.84
2023-01-28T13:29:09.491Z,78.47
2023-01-28T13:32:31.385Z,78.83
2023-01-28T13:35:34.685Z,78.90
2023-01-28T13:38:36.999Z,78.92
2023-01-28T13:41:41.022Z,78.56
2023-01-28T13:44:42.599Z,78.83
2023-01-28T13:47:47.080Z,78.84
2023-01-28T13:50:53.441Z,78.89
2023-01-28T13:54:03.131Z,78.54
2023-01-28T13:57:10.949Z,78.46
2023-01-28T14:00:52.373Z,78.60
2023-01-28T14:04:24.541Z,78.57
2023-01-28T14:07:40.298Z,78.82
2023-01-28T14:10:44.532Z,78.53
2023-01-28T14:13:57.818Z,78.32
2023-01-28T14:17:36.307Z,78.46
2023-01-28T14:20:44.962Z,78.84
2023-01-28T14:23:54.951Z,78.66
2023-01-28T14:27:09.624Z,78.83
2023-01-28T14:30:20.118Z,78.78
2023-01-28T14:33:22.518Z,78.65
2023-01-28T14:36:25.150Z,78.68
2023-01-28T14:39:32.655Z,78.48
2023-01-28T14:42:39.731Z,78.44
2023-01-28T14:45:56.557Z,78.01
2023-01-28T14:49:13.144Z,77.89
2023-01-28T14:52:21.908Z,77.81
2023-01-28T14:55:30.036Z,78.03
2023-01-28T14:58:42.164Z,78.05
2023-01-28T15:01:46.153Z,78.26
2023-01-28T15:04:48.527Z,78.15
2023-01-28T15:07:50.300Z,78.24
2023-01-28T15:10:53.290Z,78.70
2023-01-28T15:13:58.157Z,78.58
2023-01-28T15:17:00.664Z,78.87
2023-01-28T15:20:02.443Z,79.04
2023-01-28T15:23:06.634Z,78.79
2023-01-28T15:26:16.002Z,78.97
2023-01-28T15:29:25.910Z,78.74
2023-01-28T15:32:29.653Z,78.70
2023-01-28T15:35:32.207Z,78.92
2023-01-28T15:38:33.796Z,78.81
2023-01-28T15:41:37.841Z,78.58
2023-01-28T15:44:44.949Z,78.53
2023-01-28T15:47:47.842Z,78.24
2023-01-28T15:50:58.317Z,78.16
2023-01-28T15:54:10.001Z,78.16
2023-01-28T15:57:22.875Z,78.44
2023-01-28T16:00:25.757Z,78.35
2023-01-28T16:03:27.400Z,78.39
2023-01-28T16:06:40.153Z,78.49
2023-01-28T16:09:42.114Z,78.61
2023-01-28T16:12:49.060Z,78.42
2023-01-28T16:15:52.961Z,78.70
2023-01-28T16:18:55.255Z,78.34
2023-01-28T16:21:57.071Z,78.88
2023-01-28T16:24:58.586Z,79.40
2023-01-28T16:28:01.887Z,79.49
2023-01-28T16:31:05.986Z,79.40
2023-01-28T16:34:10.368Z,78.82
2023-01-28T16:37:12.045Z,78.65
2023-01-28T16:40:16.445Z,78.89
2023-01-28T16:43:18.098Z,78.72
2023-01-28T16:46:19.805Z,78.53
2023-01-28T16:49:21.467Z,78.36
2023-01-28T16:52:23.614Z,78.32
2023-01-28T16:55:25.594Z,78.81
2023-01-28T16:58:27.795Z,78.86
2023-01-28T17:01:29.353Z,79.13
2023-01-28T17:04:30.956Z,78.98
2023-01-28T17:07:33.543Z,79.58
2023-01-28T17:10:35.244Z,79.13
2023-01-28T17:13:36.876Z,79.41
2023-01-28T17:16:38.728Z,79.08
2023-01-28T17:19:40.547Z,79.17
2023-01-28T17:22:42.958Z,79.37
2023-01-28T17:25:44.850Z,79.50
2023-01-28T17:28:52.566Z,79.63
2023-01-28T17:31:54.325Z,79.95
2023-01-28T17:34:55.977Z,79.86
2023-01-28T17:37:57.787Z,80.14
2023-01-28T17:41:02.929Z,79.93
2023-01-28T17:44:05.010Z,79.71
2023-01-28T17:47:06.750Z,79.66
2023-01-28T17:50:09.404Z,79.77
2023-01-28T17:53:11.465Z,79.89
2023-01-28T17:56:21.829Z,79.93
2023-01-28T17:59:24.987Z,79.91
2023-01-28T18:02:27.478Z,79.89
2023-01-28T18:05:29.190Z,79.86
2023-01-28T18:08:30.875Z,79.90
2023-01-28T18:11:32.589Z,79.95
2023-01-28T18:14:34.967Z,80.01
2023-01-28T18:17:36.948Z,79.99
2023-01-28T18:20:38.696Z,79.89
2023-01-28T18:23:40.299Z,80.12
2023-01-28T18:26:41.987Z,80.08
2023-01-28T18:29:43.805Z,80.08
2023-01-28T18:32:45.445Z,80.20
2023-01-28T18:35:47.407Z,80.50
2023-01-28T18:38:49.296Z,80.24
2023-01-28T18:41:54.148Z,80.30
2023-01-28T18:44:55.711Z,80.17
2023-01-28T18:47:57.271Z,80.25
2023-01-28T18:50:58.961Z,80.28
2023-01-28T18:54:02.545Z,80.47
2023-01-28T18:57:04.153Z,80.01
2023-01-28T19:00:06.402Z,80.12
2023-01-28T19:03:08.051Z,79.92
2023-01-28T19:06:10.509Z,79.98
2023-01-28T19:09:14.160Z,80.45
2023-01-28T19:12:15.789Z,80.11
2023-01-28T19:15:18.673Z,80.50
2023-01-28T19:18:20.530Z,80.42
2023-01-28T19:21:23.373Z,80.27
2023-01-28T19:24:25.172Z,80.13
2023-01-28T19:27:26.646Z,80.11
2023-01-28T19:30:28.245Z,80.05
2023-01-28T19:33:33.072Z,80.33
2023-01-28T19:36:34.775Z,80.35
2023-01-28T19:39:36.481Z,80.80
2023-01-28T19:42:38.156Z,80.32
2023-01-28T19:45:39.952Z,80.60
2023-01-28T19:48:41.644Z,80.48
2023-01-28T19:51:44.500Z,80.75
2023-01-28T19:54:47.733Z,80.52
2023-01-28T19:57:49.417Z,80.88
2023-01-28T20:00:51.023Z,80.75
2023-01-28T20:03:55.762Z,80.81
2023-01-28T20:06:57.379Z,80.64
2023-01-28T20:09:58.990Z,80.84
2023-01-28T20:13:00.583Z,81.00
2023-01-28T20:16:07.013Z,80.81
2023-01-28T20:19:14.345Z,80.73
2023-01-28T20:22:16.122Z,80.81
2023-01-28T20:25:18.212Z,80.82
2023-01-28T20:28:21.247Z,80.76
2023-01-28T20:31:22.996Z,80.82
2023-01-28T20:34:24.742Z,80.87
2023-01-28T20:37:26.415Z,81.06
2023-01-28T20:40:28.182Z,81.11
2023-01-28T20:43:29.713Z,80.72
2023-01-28T20:46:33.289Z,80.54
2023-01-28T20:49:34.955Z,80.49
2023-01-28T20:52:36.582Z,80.27
2023-01-28T20:55:38.292Z,80.45
2023-01-28T20:58:40.919Z,80.58
2023-01-28T21:01:42.618Z,80.90
2023-01-28T21:04:44.171Z,80.90
2023-01-28T21:07:45.871Z,81.08
2023-01-28T21:10:47.636Z,81.14
2023-01-28T21:13:49.376Z,81.11
2023-01-28T21:16:51.101Z,81.01
2023-01-28T21:19:52.612Z,81.02
2023-01-28T21:22:54.674Z,81.19
2023-01-28T21:26:04.351Z,80.91
2023-01-28T21:29:05.960Z,80.77
2023-01-28T21:32:07.545Z,80.68
2023-01-28T21:35:09.639Z,80.90
2023-01-28T21:38:11.683Z,80.79
2023-01-28T21:41:13.228Z,80.86
2023-01-28T21:44:14.851Z,80.81
2023-01-28T21:47:16.627Z,80.67
2023-01-28T21:50:18.429Z,81.11
2023-01-28T21:53:20.152Z,80.95
2023-01-28T21:56:21.769Z,80.96
2023-01-28T21:59:23.399Z,81.12
2023-01-28T22:02:25.121Z,81.34
2023-01-28T22:05:26.720Z,81.04
2023-01-28T22:08:28.396Z,81.25
2023-01-28T22:11:30.624Z,81.11
2023-01-28T22:14:32.614Z,81.01
2023-01-28T22:17:34.285Z,80.95
2023-01-28T22:20:35.794Z,81.04
2023-01-28T22:23:37.370Z,80.98
2023-01-28T22:26:40.553Z,81.11
2023-01-28T22:29:42.058Z,81.21
2023-01-28T22:32:43.623Z,81.22
2023-01-28T22:35:45.162Z,81.29
2023-01-28T22:38:46.674Z,81.41
2023-01-28T22:41:48.297Z,81.52
2023-01-28T22:44:49.946Z,81.51
2023-01-28T22:47:51.553Z,81.51
2023-01-28T22:50:53.194Z,81.47
2023-01-28T22:53:55.225Z,81.41
2023-01-28T22:56:56.759Z,81.46
2023-01-28T23:00:00.279Z,81.48
2023-01-28T23:03:02.749Z,81.44
2023-01-28T23:06:04.633Z,81.32
2023-01-28T23:09:06.243Z,81.73
2023-01-28T23:12:08.022Z,81.61
2023-01-28T23:15:09.746Z,81.49
2023-01-28T23:18:19.904Z,81.38
2023-01-28T23:21:23.609Z,81.37
2023-01-28T23:24:25.514Z,81.31
2023-01-28T23:27:27.070Z,81.44
2023-01-28T23:30:28.820Z,81.57
2023-01-28T23:33:30.416Z,81.40
2023-01-28T23:36:32.114Z,81.58
2023-01-28T23:39:33.880Z,81.21
2023-01-28T23:42:35.416Z,81.15
2023-01-28T23:45:37.107Z,81.43
2023-01-28T23:48:38.776Z,81.59
2023-01-28T23:51:40.554Z,81.88
2023-01-28T23:54:42.078Z,81.72
2023-01-28T23:57:43.784Z,81.64
